sensor_id;sensor_type;location;lat;lon;timestamp;temperature;humidity
21121;DHT22;12519;43.318;21.898;2023-10-31T00:01:36;16.5;75.0
21121;DHT22;12519;43.318;21.898;2023-10-31T00:06:12;16.4;76.0
21121;DHT22;12519;43.318;21.898;2023-10-31T00:10:49;16.4;76.0
21121;DHT22;12519;43.318;21.898;2023-10-31T00:15:26;16.4;76.0
21121;DHT22;12519;43.318;21.898;2023-10-31T00:20:03;16.4;76.0
21121;DHT22;12519;43.318;21.898;2023-10-31T00:24:43;16.4;76.0
21121;DHT22;12519;43.318;21.898;2023-10-31T00:29:19;16.4;76.0
21121;DHT22;12519;43.318;21.898;2023-10-31T00:33:56;16.4;77.0
21121;DHT22;12519;43.318;21.898;2023-10-31T00:38:32;16.4;77.0
21121;DHT22;12519;43.318;21.898;2023-10-31T00:43:09;16.4;77.0
21121;DHT22;12519;43.318;21.898;2023-10-31T00:47:46;16.4;77.0
21121;DHT22;12519;43.318;21.898;2023-10-31T00:52:22;16.4;77.0
21121;DHT22;12519;43.318;21.898;2023-10-31T00:56:59;16.5;77.0
21121;DHT22;12519;43.318;21.898;2023-10-31T01:01:35;16.5;77.0
21121;DHT22;12519;43.318;21.898;2023-10-31T01:06:12;16.5;77.0
21121;DHT22;12519;43.318;21.898;2023-10-31T01:10:48;16.5;77.0
21121;DHT22;12519;43.318;21.898;2023-10-31T01:15:25;16.5;77.0
21121;DHT22;12519;43.318;21.898;2023-10-31T01:20:03;16.5;77.0
21121;DHT22;12519;43.318;21.898;2023-10-31T01:24:44;16.4;77.0
21121;DHT22;12519;43.318;21.898;2023-10-31T01:29:21;16.4;77.0
21121;DHT22;12519;43.318;21.898;2023-10-31T01:33:58;16.4;77.0
21121;DHT22;12519;43.318;21.898;2023-10-31T01:38:35;16.4;77.0
21121;DHT22;12519;43.318;21.898;2023-10-31T01:43:12;16.4;77.0
21121;DHT22;12519;43.318;21.898;2023-10-31T01:48:05;16.4;77.0
21121;DHT22;12519;43.318;21.898;2023-10-31T01:52:41;16.4;77.0
21121;DHT22;12519;43.318;21.898;2023-10-31T01:57:21;16.4;77.0
21121;DHT22;12519;43.318;21.898;2023-10-31T02:01:58;16.4;77.0
21121;DHT22;12519;43.318;21.898;2023-10-31T02:06:39;16.1;78.0
21121;DHT22;12519;43.318;21.898;2023-10-31T02:11:15;16.1;78.0
21121;DHT22;12519;43.318;21.898;2023-10-31T02:15:51;15.8;79.0
21121;DHT22;12519;43.318;21.898;2023-10-31T02:20:28;15.8;79.0
21121;DHT22;12519;43.318;21.898;2023-10-31T02:25:15;15.6;79.0
21121;DHT22;12519;43.318;21.898;2023-10-31T02:29:53;15.6;79.0
21121;DHT22;12519;43.318;21.898;2023-10-31T02:34:30;15.5;80.0
21121;DHT22;12519;43.318;21.898;2023-10-31T02:39:06;15.5;80.0
21121;DHT22;12519;43.318;21.898;2023-10-31T02:43:42;15.8;80.0
21121;DHT22;12519;43.318;21.898;2023-10-31T02:48:19;15.8;80.0
21121;DHT22;12519;43.318;21.898;2023-10-31T02:52:55;15.8;80.0
21121;DHT22;12519;43.318;21.898;2023-10-31T02:57:32;16.0;79.0
21121;DHT22;12519;43.318;21.898;2023-10-31T03:02:08;16.0;79.0
21121;DHT22;12519;43.318;21.898;2023-10-31T03:06:45;15.9;79.0
21121;DHT22;12519;43.318;21.898;2023-10-31T03:11:21;15.9;79.0
21121;DHT22;12519;43.318;21.898;2023-10-31T03:16:03;15.8;79.0
21121;DHT22;12519;43.318;21.898;2023-10-31T03:20:44;15.8;79.0
21121;DHT22;12519;43.318;21.898;2023-10-31T03:25:21;15.6;79.0
21121;DHT22;12519;43.318;21.898;2023-10-31T03:29:58;15.6;79.0
21121;DHT22;12519;43.318;21.898;2023-10-31T03:34:35;15.5;80.0
21121;DHT22;12519;43.318;21.898;2023-10-31T03:39:11;15.5;80.0
21121;DHT22;12519;43.318;21.898;2023-10-31T03:43:48;15.6;80.0
21121;DHT22;12519;43.318;21.898;2023-10-31T03:48:24;15.6;80.0
21121;DHT22;12519;43.318;21.898;2023-10-31T03:53:02;15.6;80.0
21121;DHT22;12519;43.318;21.898;2023-10-31T03:57:39;15.8;79.0
21121;DHT22;12519;43.318;21.898;2023-10-31T04:02:16;15.8;79.0
21121;DHT22;12519;43.318;21.898;2023-10-31T04:06:53;16.0;80.0
21121;DHT22;12519;43.318;21.898;2023-10-31T04:11:30;16.0;80.0
21121;DHT22;12519;43.318;21.898;2023-10-31T04:16:07;16.1;82.0
21121;DHT22;12519;43.318;21.898;2023-10-31T04:20:44;16.1;82.0
21121;DHT22;12519;43.318;21.898;2023-10-31T04:25:21;17.5;80.0
21121;DHT22;12519;43.318;21.898;2023-10-31T04:29:57;17.5;80.0
21121;DHT22;12519;43.318;21.898;2023-10-31T04:34:33;18.8;79.0
21121;DHT22;12519;43.318;21.898;2023-10-31T04:39:10;18.8;79.0
21121;DHT22;12519;43.318;21.898;2023-10-31T04:43:46;19.0;77.0
21121;DHT22;12519;43.318;21.898;2023-10-31T04:48:23;19.0;77.0
21121;DHT22;12519;43.318;21.898;2023-10-31T04:52:59;19.0;77.0
21121;DHT22;12519;43.318;21.898;2023-10-31T04:57:35;19.3;75.0
21121;DHT22;12519;43.318;21.898;2023-10-31T05:02:11;19.3;75.0
21121;DHT22;12519;43.318;21.898;2023-10-31T05:06:47;19.2;75.0
21121;DHT22;12519;43.318;21.898;2023-10-31T05:11:23;19.2;75.0
21121;DHT22;12519;43.318;21.898;2023-10-31T05:16:00;19.2;76.0
21121;DHT22;12519;43.318;21.898;2023-10-31T05:20:36;19.2;76.0
21121;DHT22;12519;43.318;21.898;2023-10-31T05:25:12;18.8;74.0
21121;DHT22;12519;43.318;21.898;2023-10-31T05:29:49;18.8;74.0
21121;DHT22;12519;43.318;21.898;2023-10-31T05:34:26;18.4;73.0
21121;DHT22;12519;43.318;21.898;2023-10-31T05:39:02;18.4;73.0
21121;DHT22;12519;43.318;21.898;2023-10-31T05:43:39;18.4;73.0
21121;DHT22;12519;43.318;21.898;2023-10-31T05:48:17;17.4;75.0
21121;DHT22;12519;43.318;21.898;2023-10-31T05:52:53;17.4;75.0
21121;DHT22;12519;43.318;21.898;2023-10-31T05:57:30;16.3;76.0
21121;DHT22;12519;43.318;21.898;2023-10-31T06:02:07;16.3;76.0
21121;DHT22;12519;43.318;21.898;2023-10-31T06:06:44;16.3;78.0
21121;DHT22;12519;43.318;21.898;2023-10-31T06:11:20;16.3;78.0
21121;DHT22;12519;43.318;21.898;2023-10-31T06:15:57;16.3;79.0
21121;DHT22;12519;43.318;21.898;2023-10-31T06:20:36;16.3;79.0
21121;DHT22;12519;43.318;21.898;2023-10-31T06:25:13;16.2;79.0
21121;DHT22;12519;43.318;21.898;2023-10-31T06:29:50;16.2;79.0
21121;DHT22;12519;43.318;21.898;2023-10-31T06:34:26;16.2;78.0
21121;DHT22;12519;43.318;21.898;2023-10-31T06:39:03;16.2;78.0
21121;DHT22;12519;43.318;21.898;2023-10-31T06:43:40;16.2;78.0
21121;DHT22;12519;43.318;21.898;2023-10-31T06:48:17;16.4;79.0
21121;DHT22;12519;43.318;21.898;2023-10-31T06:52:54;16.4;79.0
21121;DHT22;12519;43.318;21.898;2023-10-31T06:57:31;16.5;79.0
21121;DHT22;12519;43.318;21.898;2023-10-31T07:02:07;16.5;79.0
21121;DHT22;12519;43.318;21.898;2023-10-31T07:06:44;17.3;78.0
21121;DHT22;12519;43.318;21.898;2023-10-31T07:11:21;17.3;78.0
21121;DHT22;12519;43.318;21.898;2023-10-31T07:15:57;18.1;77.0
21121;DHT22;12519;43.318;21.898;2023-10-31T07:20:34;18.1;77.0
21121;DHT22;12519;43.318;21.898;2023-10-31T07:25:10;19.8;75.0
21121;DHT22;12519;43.318;21.898;2023-10-31T07:29:46;19.8;75.0
21121;DHT22;12519;43.318;21.898;2023-10-31T07:34:23;21.5;73.0
21121;DHT22;12519;43.318;21.898;2023-10-31T07:38:59;21.5;73.0
21121;DHT22;12519;43.318;21.898;2023-10-31T07:43:35;21.5;73.0
21121;DHT22;12519;43.318;21.898;2023-10-31T07:48:11;22.1;72.0
21121;DHT22;12519;43.318;21.898;2023-10-31T07:52:47;22.1;72.0
21121;DHT22;12519;43.318;21.898;2023-10-31T07:57:24;22.7;70.0
21121;DHT22;12519;43.318;21.898;2023-10-31T08:02:00;22.7;70.0
21121;DHT22;12519;43.318;21.898;2023-10-31T08:06:39;22.8;70.0
21121;DHT22;12519;43.318;21.898;2023-10-31T08:11:15;22.8;70.0
21121;DHT22;12519;43.318;21.898;2023-10-31T08:15:52;23.0;70.0
21121;DHT22;12519;43.318;21.898;2023-10-31T08:20:28;23.0;70.0
21121;DHT22;12519;43.318;21.898;2023-10-31T08:25:05;23.0;69.0
21121;DHT22;12519;43.318;21.898;2023-10-31T08:29:44;23.0;69.0
21121;DHT22;12519;43.318;21.898;2023-10-31T08:34:20;23.1;69.0
21121;DHT22;12519;43.318;21.898;2023-10-31T08:38:57;23.1;69.0
21121;DHT22;12519;43.318;21.898;2023-10-31T08:43:33;23.1;69.0
21121;DHT22;12519;43.318;21.898;2023-10-31T08:48:10;22.9;69.0
21121;DHT22;12519;43.318;21.898;2023-10-31T08:52:47;22.9;69.0
21121;DHT22;12519;43.318;21.898;2023-10-31T08:57:24;22.7;69.0
21121;DHT22;12519;43.318;21.898;2023-10-31T09:02:01;22.7;69.0
21121;DHT22;12519;43.318;21.898;2023-10-31T09:06:39;22.6;69.0
21121;DHT22;12519;43.318;21.898;2023-10-31T09:11:16;22.6;69.0
21121;DHT22;12519;43.318;21.898;2023-10-31T09:15:52;22.6;69.0
21121;DHT22;12519;43.318;21.898;2023-10-31T09:20:29;22.6;69.0
21121;DHT22;12519;43.318;21.898;2023-10-31T09:25:07;22.4;68.0
21121;DHT22;12519;43.318;21.898;2023-10-31T09:29:44;22.4;68.0
21121;DHT22;12519;43.318;21.898;2023-10-31T09:34:21;22.1;67.0
21121;DHT22;12519;43.318;21.898;2023-10-31T09:38:58;22.1;67.0
21121;DHT22;12519;43.318;21.898;2023-10-31T09:43:34;22.1;67.0
21121;DHT22;12519;43.318;21.898;2023-10-31T09:48:12;22.2;67.0
21121;DHT22;12519;43.318;21.898;2023-10-31T09:52:50;22.2;67.0
21121;DHT22;12519;43.318;21.898;2023-10-31T09:57:31;22.2;66.0
21121;DHT22;12519;43.318;21.898;2023-10-31T10:02:08;22.2;66.0
21121;DHT22;12519;43.318;21.898;2023-10-31T10:06:50;22.2;66.0
21121;DHT22;12519;43.318;21.898;2023-10-31T10:11:35;22.2;66.0
21121;DHT22;12519;43.318;21.898;2023-10-31T10:16:12;22.3;66.0
21121;DHT22;12519;43.318;21.898;2023-10-31T10:21:03;22.3;66.0
21121;DHT22;12519;43.318;21.898;2023-10-31T10:25:43;22.5;65.0
21121;DHT22;12519;43.318;21.898;2023-10-31T10:30:23;22.5;65.0
21121;DHT22;12519;43.318;21.898;2023-10-31T10:35:01;22.6;64.0
21121;DHT22;12519;43.318;21.898;2023-10-31T10:39:42;22.6;64.0
21121;DHT22;12519;43.318;21.898;2023-10-31T10:44:33;22.8;64.0
21121;DHT22;12519;43.318;21.898;2023-10-31T10:49:23;22.8;64.0
21121;DHT22;12519;43.318;21.898;2023-10-31T10:54:09;22.8;64.0
21121;DHT22;12519;43.318;21.898;2023-10-31T10:59:20;23.0;63.0
21121;DHT22;12519;43.318;21.898;2023-10-31T11:04:22;23.0;63.0
21121;DHT22;12519;43.318;21.898;2023-10-31T11:09:00;23.3;62.0
21121;DHT22;12519;43.318;21.898;2023-10-31T11:13:43;23.3;62.0
21121;DHT22;12519;43.318;21.898;2023-10-31T11:18:22;23.6;62.0
21121;DHT22;12519;43.318;21.898;2023-10-31T11:23:02;23.6;62.0
21121;DHT22;12519;43.318;21.898;2023-10-31T11:27:39;23.8;61.0
21121;DHT22;12519;43.318;21.898;2023-10-31T11:32:15;23.8;61.0
21121;DHT22;12519;43.318;21.898;2023-10-31T11:36:52;24.1;60.0
21121;DHT22;12519;43.318;21.898;2023-10-31T11:41:54;24.1;60.0
21121;DHT22;12519;43.318;21.898;2023-10-31T11:46:32;24.1;60.0
21121;DHT22;12519;43.318;21.898;2023-10-31T11:51:08;24.1;60.0
21121;DHT22;12519;43.318;21.898;2023-10-31T11:55:48;24.1;60.0
21121;DHT22;12519;43.318;21.898;2023-10-31T12:00:25;24.1;60.0
21121;DHT22;12519;43.318;21.898;2023-10-31T12:05:07;24.1;59.0
21121;DHT22;12519;43.318;21.898;2023-10-31T12:09:49;24.1;59.0
21121;DHT22;12519;43.318;21.898;2023-10-31T12:14:26;24.1;59.0
21121;DHT22;12519;43.318;21.898;2023-10-31T12:19:04;24.1;58.0
21121;DHT22;12519;43.318;21.898;2023-10-31T12:23:42;24.1;58.0
21121;DHT22;12519;43.318;21.898;2023-10-31T12:28:19;24.2;58.0
21121;DHT22;12519;43.318;21.898;2023-10-31T12:33:01;24.2;58.0
21121;DHT22;12519;43.318;21.898;2023-10-31T12:37:38;24.4;57.0
21121;DHT22;12519;43.318;21.898;2023-10-31T12:42:15;24.4;57.0
21121;DHT22;12519;43.318;21.898;2023-10-31T12:46:53;24.5;57.0
21121;DHT22;12519;43.318;21.898;2023-10-31T12:51:30;24.5;57.0
21121;DHT22;12519;43.318;21.898;2023-10-31T12:56:06;24.6;58.0
21121;DHT22;12519;43.318;21.898;2023-10-31T13:00:43;24.6;58.0
21121;DHT22;12519;43.318;21.898;2023-10-31T13:05:25;24.5;57.0
21121;DHT22;12519;43.318;21.898;2023-10-31T13:10:04;24.5;57.0
21121;DHT22;12519;43.318;21.898;2023-10-31T13:14:44;24.4;57.0
21121;DHT22;12519;43.318;21.898;2023-10-31T13:19:20;24.4;57.0
21121;DHT22;12519;43.318;21.898;2023-10-31T13:23:57;24.4;57.0
21121;DHT22;12519;43.318;21.898;2023-10-31T13:28:33;24.2;58.0
21121;DHT22;12519;43.318;21.898;2023-10-31T13:33:10;24.2;58.0
21121;DHT22;12519;43.318;21.898;2023-10-31T13:37:46;24.0;58.0
21121;DHT22;12519;43.318;21.898;2023-10-31T13:42:23;24.0;58.0
21121;DHT22;12519;43.318;21.898;2023-10-31T13:46:59;23.8;59.0
21121;DHT22;12519;43.318;21.898;2023-10-31T13:51:35;23.8;59.0
21121;DHT22;12519;43.318;21.898;2023-10-31T13:56:12;23.7;59.0
21121;DHT22;12519;43.318;21.898;2023-10-31T14:00:49;23.7;59.0
21121;DHT22;12519;43.318;21.898;2023-10-31T14:05:25;23.6;59.0
21121;DHT22;12519;43.318;21.898;2023-10-31T14:10:02;23.6;59.0
21121;DHT22;12519;43.318;21.898;2023-10-31T14:14:41;23.6;59.0
21121;DHT22;12519;43.318;21.898;2023-10-31T14:19:18;23.6;60.0
21121;DHT22;12519;43.318;21.898;2023-10-31T14:23:54;23.6;60.0
21121;DHT22;12519;43.318;21.898;2023-10-31T14:28:31;23.5;60.0
21121;DHT22;12519;43.318;21.898;2023-10-31T14:33:07;23.5;60.0
21121;DHT22;12519;43.318;21.898;2023-10-31T14:37:44;23.4;60.0
21121;DHT22;12519;43.318;21.898;2023-10-31T14:42:21;23.4;60.0
21121;DHT22;12519;43.318;21.898;2023-10-31T14:46:58;23.3;60.0
21121;DHT22;12519;43.318;21.898;2023-10-31T14:51:35;23.3;60.0
21121;DHT22;12519;43.318;21.898;2023-10-31T14:56:12;23.2;60.0
21121;DHT22;12519;43.318;21.898;2023-10-31T15:00:49;23.2;60.0
21121;DHT22;12519;43.318;21.898;2023-10-31T15:05:26;23.0;61.0
21121;DHT22;12519;43.318;21.898;2023-10-31T15:10:03;23.0;61.0
21121;DHT22;12519;43.318;21.898;2023-10-31T15:14:42;23.0;61.0
21121;DHT22;12519;43.318;21.898;2023-10-31T15:19:18;22.9;61.0
21121;DHT22;12519;43.318;21.898;2023-10-31T15:23:55;22.9;61.0
21121;DHT22;12519;43.318;21.898;2023-10-31T15:28:31;22.8;62.0
21121;DHT22;12519;43.318;21.898;2023-10-31T15:33:07;22.8;62.0
21121;DHT22;12519;43.318;21.898;2023-10-31T15:37:43;22.6;62.0
21121;DHT22;12519;43.318;21.898;2023-10-31T15:42:20;22.6;62.0
21121;DHT22;12519;43.318;21.898;2023-10-31T15:46:56;22.5;63.0
21121;DHT22;12519;43.318;21.898;2023-10-31T15:51:32;22.5;63.0
21121;DHT22;12519;43.318;21.898;2023-10-31T15:56:08;22.4;63.0
21121;DHT22;12519;43.318;21.898;2023-10-31T16:00:44;22.4;63.0
21121;DHT22;12519;43.318;21.898;2023-10-31T16:05:21;22.4;63.0
21121;DHT22;12519;43.318;21.898;2023-10-31T16:09:57;22.4;63.0
21121;DHT22;12519;43.318;21.898;2023-10-31T16:14:34;22.4;63.0
21121;DHT22;12519;43.318;21.898;2023-10-31T16:19:11;22.3;63.0
21121;DHT22;12519;43.318;21.898;2023-10-31T16:23:49;22.3;63.0
21121;DHT22;12519;43.318;21.898;2023-10-31T16:28:26;22.2;64.0
21121;DHT22;12519;43.318;21.898;2023-10-31T16:33:03;22.2;64.0
21121;DHT22;12519;43.318;21.898;2023-10-31T16:37:39;22.1;64.0
21121;DHT22;12519;43.318;21.898;2023-10-31T16:42:16;22.1;64.0
21121;DHT22;12519;43.318;21.898;2023-10-31T16:46:52;22.1;65.0
21121;DHT22;12519;43.318;21.898;2023-10-31T16:51:29;22.1;65.0
21121;DHT22;12519;43.318;21.898;2023-10-31T16:56:06;22.1;65.0
21121;DHT22;12519;43.318;21.898;2023-10-31T17:00:43;22.1;65.0
21121;DHT22;12519;43.318;21.898;2023-10-31T17:05:20;22.0;66.0
21121;DHT22;12519;43.318;21.898;2023-10-31T17:09:57;22.0;66.0
21121;DHT22;12519;43.318;21.898;2023-10-31T17:14:33;22.0;66.0
21121;DHT22;12519;43.318;21.898;2023-10-31T17:19:10;21.8;66.0
21121;DHT22;12519;43.318;21.898;2023-10-31T17:23:48;21.8;66.0
21121;DHT22;12519;43.318;21.898;2023-10-31T17:28:24;21.8;66.0
21121;DHT22;12519;43.318;21.898;2023-10-31T17:33:01;21.8;66.0
21121;DHT22;12519;43.318;21.898;2023-10-31T17:37:38;21.7;66.0
21121;DHT22;12519;43.318;21.898;2023-10-31T17:42:15;21.7;66.0
21121;DHT22;12519;43.318;21.898;2023-10-31T17:46:52;21.7;66.0
21121;DHT22;12519;43.318;21.898;2023-10-31T17:51:29;21.7;66.0
21121;DHT22;12519;43.318;21.898;2023-10-31T17:56:06;21.7;66.0
21121;DHT22;12519;43.318;21.898;2023-10-31T18:00:43;21.7;66.0
21121;DHT22;12519;43.318;21.898;2023-10-31T18:05:19;21.8;68.0
21121;DHT22;12519;43.318;21.898;2023-10-31T18:09:55;21.8;68.0
21121;DHT22;12519;43.318;21.898;2023-10-31T18:14:32;21.8;68.0
21121;DHT22;12519;43.318;21.898;2023-10-31T18:19:08;21.8;69.0
21121;DHT22;12519;43.318;21.898;2023-10-31T18:23:44;21.8;69.0
21121;DHT22;12519;43.318;21.898;2023-10-31T18:28:21;21.8;69.0
21121;DHT22;12519;43.318;21.898;2023-10-31T18:32:57;21.8;69.0
21121;DHT22;12519;43.318;21.898;2023-10-31T18:37:33;21.7;70.0
21121;DHT22;12519;43.318;21.898;2023-10-31T18:42:10;21.7;70.0
21121;DHT22;12519;43.318;21.898;2023-10-31T18:46:46;21.5;71.0
21121;DHT22;12519;43.318;21.898;2023-10-31T18:51:23;21.5;71.0
21121;DHT22;12519;43.318;21.898;2023-10-31T18:55:59;21.4;72.0
21121;DHT22;12519;43.318;21.898;2023-10-31T19:00:36;21.4;72.0
21121;DHT22;12519;43.318;21.898;2023-10-31T19:05:12;21.4;72.0
21121;DHT22;12519;43.318;21.898;2023-10-31T19:09:49;21.2;74.0
21121;DHT22;12519;43.318;21.898;2023-10-31T19:14:26;21.2;74.0
21121;DHT22;12519;43.318;21.898;2023-10-31T19:19:03;21.0;75.0
21121;DHT22;12519;43.318;21.898;2023-10-31T19:23:40;21.0;75.0
21121;DHT22;12519;43.318;21.898;2023-10-31T19:28:17;20.8;76.0
21121;DHT22;12519;43.318;21.898;2023-10-31T19:32:53;20.8;76.0
21121;DHT22;12519;43.318;21.898;2023-10-31T19:37:30;20.7;77.0
21121;DHT22;12519;43.318;21.898;2023-10-31T19:42:06;20.7;77.0
21121;DHT22;12519;43.318;21.898;2023-10-31T19:46:43;20.4;78.0
21121;DHT22;12519;43.318;21.898;2023-10-31T19:51:20;20.4;78.0
21121;DHT22;12519;43.318;21.898;2023-10-31T19:55:58;20.2;79.0
21121;DHT22;12519;43.318;21.898;2023-10-31T20:00:35;20.2;79.0
21121;DHT22;12519;43.318;21.898;2023-10-31T20:05:12;20.2;79.0
21121;DHT22;12519;43.318;21.898;2023-10-31T20:09:49;19.8;82.0
21121;DHT22;12519;43.318;21.898;2023-10-31T20:14:26;19.8;82.0
21121;DHT22;12519;43.318;21.898;2023-10-31T20:19:03;19.4;85.0
21121;DHT22;12519;43.318;21.898;2023-10-31T20:23:40;19.4;85.0
21121;DHT22;12519;43.318;21.898;2023-10-31T20:28:17;19.2;87.0
21121;DHT22;12519;43.318;21.898;2023-10-31T20:32:55;19.2;87.0
21121;DHT22;12519;43.318;21.898;2023-10-31T20:37:32;19.0;90.0
21121;DHT22;12519;43.318;21.898;2023-10-31T20:42:08;19.0;90.0
21121;DHT22;12519;43.318;21.898;2023-10-31T20:46:44;19.1;90.0
21121;DHT22;12519;43.318;21.898;2023-10-31T20:51:21;19.1;90.0
21121;DHT22;12519;43.318;21.898;2023-10-31T20:55:57;19.2;92.0
21121;DHT22;12519;43.318;21.898;2023-10-31T21:00:33;19.2;92.0
21121;DHT22;12519;43.318;21.898;2023-10-31T21:05:10;19.2;92.0
21121;DHT22;12519;43.318;21.898;2023-10-31T21:09:46;19.3;92.0
21121;DHT22;12519;43.318;21.898;2023-10-31T21:14:23;19.3;92.0
21121;DHT22;12519;43.318;21.898;2023-10-31T21:18:59;19.4;92.0
21121;DHT22;12519;43.318;21.898;2023-10-31T21:23:36;19.4;92.0
21121;DHT22;12519;43.318;21.898;2023-10-31T21:28:12;19.4;92.0
21121;DHT22;12519;43.318;21.898;2023-10-31T21:32:48;19.4;92.0
21121;DHT22;12519;43.318;21.898;2023-10-31T21:37:25;19.4;92.0
21121;DHT22;12519;43.318;21.898;2023-10-31T21:42:01;19.4;92.0
21121;DHT22;12519;43.318;21.898;2023-10-31T21:46:39;19.3;93.0
21121;DHT22;12519;43.318;21.898;2023-10-31T21:51:16;19.3;93.0
21121;DHT22;12519;43.318;21.898;2023-10-31T21:55:53;19.2;94.0
21121;DHT22;12519;43.318;21.898;2023-10-31T22:00:29;19.2;94.0
21121;DHT22;12519;43.318;21.898;2023-10-31T22:05:07;19.2;94.0
21121;DHT22;12519;43.318;21.898;2023-10-31T22:09:44;19.1;94.0
21121;DHT22;12519;43.318;21.898;2023-10-31T22:14:20;19.1;94.0
21121;DHT22;12519;43.318;21.898;2023-10-31T22:18:57;19.0;94.0
21121;DHT22;12519;43.318;21.898;2023-10-31T22:23:35;19.0;94.0
21121;DHT22;12519;43.318;21.898;2023-10-31T22:28:13;18.8;95.0
21121;DHT22;12519;43.318;21.898;2023-10-31T22:32:49;18.8;95.0
21121;DHT22;12519;43.318;21.898;2023-10-31T22:37:26;18.5;97.0
21121;DHT22;12519;43.318;21.898;2023-10-31T22:42:03;18.5;97.0
21121;DHT22;12519;43.318;21.898;2023-10-31T22:46:42;18.2;97.0
21121;DHT22;12519;43.318;21.898;2023-10-31T22:51:21;18.2;97.0
21121;DHT22;12519;43.318;21.898;2023-10-31T22:55:58;17.8;98.0
21121;DHT22;12519;43.318;21.898;2023-10-31T23:00:35;17.8;98.0
21121;DHT22;12519;43.318;21.898;2023-10-31T23:05:11;17.8;98.0
21121;DHT22;12519;43.318;21.898;2023-10-31T23:09:48;17.8;99.0
21121;DHT22;12519;43.318;21.898;2023-10-31T23:14:25;17.8;99.0
21121;DHT22;12519;43.318;21.898;2023-10-31T23:19:02;17.8;99.0
21121;DHT22;12519;43.318;21.898;2023-10-31T23:23:39;17.8;99.0
21121;DHT22;12519;43.318;21.898;2023-10-31T23:28:15;18.0;99.0
21121;DHT22;12519;43.318;21.898;2023-10-31T23:32:51;18.0;99.0
21121;DHT22;12519;43.318;21.898;2023-10-31T23:37:27;18.2;99.0
21121;DHT22;12519;43.318;21.898;2023-10-31T23:42:04;18.2;99.0
21121;DHT22;12519;43.318;21.898;2023-10-31T23:46:40;18.1;99.0
21121;DHT22;12519;43.318;21.898;2023-10-31T23:51:18;18.1;99.0
21121;DHT22;12519;43.318;21.898;2023-10-31T23:55:55;18.0;99.0
